Time;durP1;ratioP1;P1;durP2;ratioP2;P2;SDS_P1;SDS_P2;PMS_P1;PMS_P2;Temp;Humidity;BMP_temperature;BMP_pressure;BME280_temperature;BME280_humidity;BME280_pressure;Samples;Min_cycle;Max_cycle;Signal;HPM_P1;HPM_P2
2022/11/30 00:00:25;;;;;;;;;29.00;22.25;;;;;10.10;59.97;101625.44;5019380;28;45587;-36
2022/11/30 00:02:54;;;;;;;;;26.25;18.75;;;;;10.06;60.09;101622.00;5024366;28;70315;-36
2022/11/30 00:05:21;;;;;;;;;25.75;20.75;;;;;10.02;60.26;101629.00;5026639;28;45474;-37
2022/11/30 00:07:46;;;;;;;;;24.25;22.50;;;;;9.99;60.10;101620.34;5024497;27;45511;-37
2022/11/30 00:10:12;;;;;;;;;30.75;21.50;;;;;9.99;60.48;101622.94;5031560;28;45495;-36
2022/11/30 00:12:41;;;;;;;;;25.75;17.75;;;;;9.99;60.34;101615.09;5024158;28;45444;-37
2022/11/30 00:15:08;;;;;;;;;33.50;25.50;;;;;9.98;60.62;101614.22;5024431;28;46001;-37
2022/11/30 00:17:33;;;;;;;;;25.00;18.75;;;;;9.94;60.38;101609.91;5031391;28;45505;-36
2022/11/30 00:19:58;;;;;;;;;30.75;19.25;;;;;9.92;60.18;101606.44;5016351;28;74036;-37
2022/11/30 00:22:24;;;;;;;;;27.75;21.75;;;;;9.93;60.46;101609.91;5025276;28;61902;-37
2022/11/30 00:24:49;;;;;;;;;25.75;22.00;;;;;9.91;60.37;101609.94;5017118;27;45327;-37
2022/11/30 00:27:14;;;;;;;;;23.50;17.00;;;;;9.91;60.45;101609.06;5029009;27;45319;-37
2022/11/30 00:29:40;;;;;;;;;30.00;19.00;;;;;9.91;60.57;101603.84;5026758;28;50062;-37
2022/11/30 00:32:05;;;;;;;;;21.75;15.75;;;;;9.92;60.55;101606.44;5020774;28;46098;-37
2022/11/30 00:34:30;;;;;;;;;33.25;24.00;;;;;9.92;60.30;101602.97;5030331;28;65852;-37
2022/11/30 00:36:56;;;;;;;;;14.00;13.25;;;;;9.93;60.21;101595.09;5016373;28;57200;-37
2022/11/30 00:39:21;;;;;;;;;23.25;18.50;;;;;9.94;60.76;101604.69;5028769;28;51052;-37
2022/11/30 00:41:47;;;;;;;;;33.50;24.75;;;;;9.95;60.16;101595.06;5027102;28;46212;-36
2022/11/30 00:44:12;;;;;;;;;25.25;19.00;;;;;9.92;60.27;101600.38;5022198;28;46073;-37
2022/11/30 00:46:38;;;;;;;;;25.75;17.25;;;;;9.92;60.52;101602.97;5020462;28;60143;-37
2022/11/30 00:49:03;;;;;;;;;28.75;22.50;;;;;9.91;60.71;101604.69;5022549;28;45311;-37
2022/11/30 00:51:28;;;;;;;;;27.75;19.50;;;;;9.92;60.58;101597.75;5017758;28;64220;-36
2022/11/30 00:53:54;;;;;;;;;26.50;22.75;;;;;9.92;60.65;101593.38;5027374;27;45412;-37
2022/11/30 00:56:20;;;;;;;;;29.50;20.25;;;;;9.95;60.66;101595.06;5024362;28;45589;-37
2022/11/30 00:58:45;;;;;;;;;27.00;18.75;;;;;9.95;60.46;101582.00;5031670;28;45275;-37
2022/11/30 01:01:10;;;;;;;;;28.00;20.50;;;;;9.92;60.73;101592.53;5029408;28;45465;-37
2022/11/30 01:03:36;;;;;;;;;30.50;20.75;;;;;9.91;60.77;101598.63;5029614;28;45333;-37
2022/11/30 01:06:03;;;;;;;;;21.75;17.50;;;;;9.91;60.81;101589.03;5025516;28;45562;-37
2022/11/30 01:08:29;;;;;;;;;22.50;16.50;;;;;9.92;60.62;101596.00;5031499;28;45534;-36
2022/11/30 01:10:56;;;;;;;;;27.75;19.25;;;;;9.89;60.45;101594.25;5023182;28;45500;-36
2022/11/30 01:13:22;;;;;;;;;31.75;24.50;;;;;9.89;60.58;101602.09;5030075;28;45282;-36
2022/11/30 01:15:47;;;;;;;;;31.75;23.75;;;;;9.89;60.42;101596.88;5029462;28;45414;-36
2022/11/30 01:18:13;;;;;;;;;32.75;24.75;;;;;9.89;60.47;101598.63;5034557;28;67664;-36
2022/11/30 01:20:40;;;;;;;;;28.25;21.50;;;;;9.88;60.55;101600.38;5021841;28;45448;-36
2022/11/30 01:23:05;;;;;;;;;34.75;23.50;;;;;9.87;60.69;101597.78;5026045;28;45377;-36
2022/11/30 01:25:31;;;;;;;;;34.25;25.75;;;;;9.89;60.78;101599.50;5026027;28;57824;-36
2022/11/30 01:27:56;;;;;;;;;38.25;24.50;;;;;9.93;60.69;101596.84;5047938;28;45550;-36
2022/11/30 01:30:21;;;;;;;;;27.50;23.75;;;;;9.93;60.49;101592.47;5036139;28;74184;-36
2022/11/30 01:32:47;;;;;;;;;26.75;21.00;;;;;9.96;60.61;101589.84;5033439;28;45474;-36
2022/11/30 01:35:12;;;;;;;;;31.00;25.25;;;;;9.94;60.51;101580.28;5030243;28;60386;-36
2022/11/30 01:37:37;;;;;;;;;34.25;27.75;;;;;9.94;60.55;101588.13;5030768;28;45459;-36
2022/11/30 01:40:03;;;;;;;;;22.75;19.00;;;;;9.95;60.45;101589.84;5032333;27;45523;-37
2022/11/30 01:42:29;;;;;;;;;25.50;22.00;;;;;9.96;60.44;101586.38;5025184;28;45442;-36
2022/11/30 01:45:01;;;;;;;;;25.25;23.00;;;;;9.96;60.27;101594.22;5034428;28;49830;-36
2022/11/30 01:47:29;;;;;;;;;20.75;16.25;;;;;9.97;60.45;101596.81;5029674;28;45467;-36
2022/11/30 01:50:00;;;;;;;;;30.50;21.75;;;;;9.98;60.44;101600.28;5033751;28;45412;-36
2022/11/30 01:52:33;;;;;;;;;21.00;17.75;;;;;9.99;60.55;101600.28;5027249;28;45320;-36
2022/11/30 01:55:27;;;;;;;;;20.50;18.00;;;;;9.97;60.43;101612.50;5027601;28;45578;-36
2022/11/30 01:58:09;;;;;;;;;24.75;20.25;;;;;9.94;60.45;101601.22;5036393;28;45562;-36
2022/11/30 02:00:34;;;;;;;;;32.25;23.50;;;;;9.94;60.55;101595.97;5028835;28;46235;-36
2022/11/30 02:03:10;;;;;;;;;29.25;25.75;;;;;9.95;60.51;101602.91;5030174;28;63743;-36
2022/11/30 02:05:37;;;;;;;;;16.25;13.75;;;;;9.93;60.41;101597.72;5026858;28;45236;-36
2022/11/30 02:08:04;;;;;;;;;28.00;22.75;;;;;9.96;60.35;101591.59;5033135;28;45581;-36
2022/11/30 02:10:31;;;;;;;;;24.00;18.75;;;;;9.98;60.46;101598.53;5032918;28;46105;-36
2022/11/30 02:13:06;;;;;;;;;26.50;19.50;;;;;10.00;60.42;101599.38;5033557;28;45457;-36
2022/11/30 02:15:43;;;;;;;;;31.00;19.75;;;;;9.99;60.44;101594.19;5022423;27;45424;-36
2022/11/30 02:18:14;;;;;;;;;27.25;20.25;;;;;9.98;60.30;101598.53;5020831;28;45501;-36
2022/11/30 02:21:02;;;;;;;;;23.25;18.00;;;;;9.99;60.43;101594.19;5025616;28;46076;-36
2022/11/30 02:24:05;;;;;;;;;28.75;19.75;;;;;9.97;60.46;101596.81;5033417;28;45399;-36
2022/11/30 02:26:30;;;;;;;;;29.50;24.50;;;;;9.98;60.29;101601.13;5032087;28;45383;-36
2022/11/30 02:29:11;;;;;;;;;31.33;19.67;;;;;10.01;60.39;101601.13;5029990;28;45429;-36
2022/11/30 02:32:01;;;;;;;;;27.25;24.00;;;;;10.02;60.04;101601.97;5024572;28;45556;-36
2022/11/30 02:34:30;;;;;;;;;28.00;24.25;;;;;10.06;60.16;101599.31;5014856;28;45313;-36
2022/11/30 02:36:56;;;;;;;;;28.00;22.50;;;;;10.08;60.07;101594.06;5027124;28;45599;-36
2022/11/30 02:39:21;;;;;;;;;25.50;22.25;;;;;10.11;59.98;101601.00;5016748;27;45602;-36
2022/11/30 02:41:47;;;;;;;;;27.75;22.50;;;;;10.12;59.90;101598.38;5031898;28;46183;-36
2022/11/30 02:44:12;;;;;;;;;20.50;20.00;;;;;10.12;60.04;101601.00;5029783;28;73227;-36
2022/11/30 02:46:57;;;;;;;;;25.75;22.75;;;;;10.13;59.67;101597.50;5032200;28;45294;-36
2022/11/30 02:49:28;;;;;;;;;23.25;20.25;;;;;10.15;60.00;101600.13;5019511;28;45511;-36
2022/11/30 02:51:54;;;;;;;;;27.25;22.50;;;;;10.15;59.79;101594.88;5021336;28;45698;-36
2022/11/30 02:54:20;;;;;;;;;22.75;19.00;;;;;10.13;59.65;101592.28;5026784;28;45515;-36
2022/11/30 02:56:45;;;;;;;;;24.50;20.50;;;;;10.14;59.83;101595.75;5019062;28;45592;-36
2022/11/30 02:59:11;;;;;;;;;29.25;18.25;;;;;10.14;59.18;101600.97;5019315;28;54015;-36
2022/11/30 03:01:37;;;;;;;;;20.00;16.75;;;;;10.15;59.81;101594.88;5024634;28;46068;-36
2022/11/30 03:04:02;;;;;;;;;20.50;16.75;;;;;10.12;59.36;101598.38;5026525;28;45771;-36
2022/11/30 03:06:28;;;;;;;;;19.00;16.00;;;;;10.08;59.29;101594.06;5053215;28;45488;-36
2022/11/30 03:08:53;;;;;;;;;16.75;14.00;;;;;10.04;59.58;101601.09;5024434;28;64659;-36
2022/11/30 03:11:18;;;;;;;;;17.00;15.25;;;;;10.02;59.11;101605.47;5041863;27;70433;-36
2022/11/30 03:13:44;;;;;;;;;14.00;11.50;;;;;9.97;59.54;101601.16;5030024;28;61788;-36
2022/11/30 03:16:11;;;;;;;;;17.50;13.75;;;;;9.94;59.27;101609.06;5023970;28;45429;-36
2022/11/30 03:18:37;;;;;;;;;16.25;16.00;;;;;9.89;59.43;101611.69;5024307;28;45459;-36
2022/11/30 03:21:06;;;;;;;;;18.50;14.75;;;;;9.88;59.58;101610.00;5025154;28;46034;-36
2022/11/30 03:23:32;;;;;;;;;15.25;12.00;;;;;9.82;59.52;101616.13;5025767;28;45479;-36
2022/11/30 03:25:58;;;;;;;;;15.25;10.75;;;;;9.77;59.88;101612.69;5044503;28;45359;-36
2022/11/30 03:28:24;;;;;;;;;14.75;12.00;;;;;9.73;59.80;101618.81;5031007;28;45721;-36
2022/11/30 03:30:49;;;;;;;;;15.75;14.00;;;;;9.69;59.87;101619.75;5028385;28;45256;-37
2022/11/30 03:33:15;;;;;;;;;8.25;6.50;;;;;9.68;59.83;101621.50;5026790;28;45380;-36
2022/11/30 03:35:41;;;;;;;;;11.00;8.75;;;;;9.68;59.84;101623.22;5022287;28;45681;-36
2022/11/30 03:38:06;;;;;;;;;15.75;12.50;;;;;9.67;59.83;101617.13;5029743;28;69537;-36
2022/11/30 03:40:31;;;;;;;;;14.00;10.75;;;;;9.65;59.70;101620.63;5020941;28;67952;-36
2022/11/30 03:42:57;;;;;;;;;13.00;10.75;;;;;9.62;59.96;101626.75;5025373;28;48445;-36
2022/11/30 03:45:22;;;;;;;;;11.75;8.00;;;;;9.61;59.82;101626.78;5019905;28;49055;-36
2022/11/30 03:47:47;;;;;;;;;12.50;10.75;;;;;9.60;59.68;101633.75;5026535;28;59120;-36
2022/11/30 03:50:13;;;;;;;;;9.00;7.00;;;;;9.59;59.78;101633.78;5023240;28;61064;-36
2022/11/30 03:52:38;;;;;;;;;10.50;8.00;;;;;9.59;59.62;101646.84;5028473;28;70547;-36
2022/11/30 03:55:04;;;;;;;;;8.00;7.25;;;;;9.58;59.73;101640.75;5030409;27;45432;-36
2022/11/30 03:57:29;;;;;;;;;8.25;6.50;;;;;9.57;59.85;101646.84;5031116;28;45412;-36
2022/11/30 03:59:54;;;;;;;;;11.25;8.25;;;;;9.58;59.68;101648.59;5062820;27;72405;-36
2022/11/30 04:02:20;;;;;;;;;14.00;7.75;;;;;9.56;59.96;101646.84;5025346;28;45452;-36
2022/11/30 04:04:45;;;;;;;;;10.00;8.00;;;;;9.55;59.77;101648.59;5033280;28;60875;-36
2022/11/30 04:07:10;;;;;;;;;10.00;5.75;;;;;9.54;59.57;101643.38;5025915;28;71607;-36
2022/11/30 04:09:36;;;;;;;;;8.50;7.00;;;;;9.55;59.65;101645.13;5032344;28;68106;-36
2022/11/30 04:12:01;;;;;;;;;11.50;7.50;;;;;9.54;59.69;101648.63;5024626;28;45627;-37
2022/11/30 04:14:26;;;;;;;;;11.00;9.50;;;;;9.54;59.62;101654.69;5024016;28;45503;-37
2022/11/30 04:16:52;;;;;;;;;13.00;9.25;;;;;9.50;59.50;101653.00;5021920;28;45566;-36
2022/11/30 04:19:17;;;;;;;;;8.25;6.75;;;;;9.50;59.60;101658.22;5032215;28;46294;-36
2022/11/30 04:21:42;;;;;;;;;10.25;6.75;;;;;9.47;59.60;101659.13;5024240;28;67418;-36
2022/11/30 04:24:08;;;;;;;;;6.50;5.00;;;;;9.47;59.50;101666.97;5020260;28;55598;-36
2022/11/30 04:26:33;;;;;;;;;5.00;5.00;;;;;9.46;59.56;101666.97;5025812;28;72838;-36
2022/11/30 04:28:58;;;;;;;;;9.00;7.00;;;;;9.46;59.62;101666.97;5026653;28;73733;-36
2022/11/30 04:31:24;;;;;;;;;5.00;5.00;;;;;9.45;59.36;101666.09;5024905;28;69867;-37
2022/11/30 04:33:53;;;;;;;;;7.25;6.00;;;;;9.44;59.59;101668.72;5030455;28;60870;-36
2022/11/30 04:36:19;;;;;;;;;5.75;5.75;;;;;9.41;59.60;101668.75;5030158;28;45384;-36
2022/11/30 04:38:44;;;;;;;;;7.50;4.75;;;;;9.37;59.52;101672.28;5042257;28;48371;-36
2022/11/30 04:41:10;;;;;;;;;7.50;5.00;;;;;9.36;59.54;101676.59;5024448;28;45431;-36
2022/11/30 04:43:35;;;;;;;;;7.00;5.50;;;;;9.35;59.81;101672.28;5023683;28;56969;-36
2022/11/30 04:46:01;;;;;;;;;6.00;4.75;;;;;9.34;59.84;101670.53;5024164;28;45404;-36
2022/11/30 04:48:27;;;;;;;;;6.00;5.00;;;;;9.33;59.81;101679.25;5036529;28;45552;-36
2022/11/30 04:50:52;;;;;;;;;4.50;4.50;;;;;9.31;59.89;101674.03;5036829;28;62269;-36
2022/11/30 04:53:17;;;;;;;;;8.25;5.00;;;;;9.29;59.56;101683.59;5027445;28;62958;-36
2022/11/30 04:55:43;;;;;;;;;6.00;4.75;;;;;9.27;59.75;101690.59;5020595;28;70407;-36
2022/11/30 04:58:08;;;;;;;;;6.00;4.00;;;;;9.27;59.62;101687.97;5029968;28;45406;-36
2022/11/30 05:00:34;;;;;;;;;6.25;4.00;;;;;9.24;59.67;101688.03;5025394;27;45454;-36
2022/11/30 05:03:00;;;;;;;;;4.00;4.00;;;;;9.23;59.58;101688.03;5026706;28;47315;-36
2022/11/30 05:05:25;;;;;;;;;4.00;3.00;;;;;9.19;59.52;101686.28;5020828;28;66194;-36
2022/11/30 05:07:55;;;;;;;;;23.75;19.00;;;;;9.15;59.52;101685.44;5019998;28;46221;-36
2022/11/30 05:10:21;;;;;;;;;6.75;3.25;;;;;9.13;59.61;101681.97;5039004;28;45478;-36
2022/11/30 05:12:46;;;;;;;;;7.00;5.00;;;;;9.09;59.05;101681.13;5025251;28;59882;-36
2022/11/30 05:15:11;;;;;;;;;8.25;4.00;;;;;9.02;59.47;101674.19;5032796;28;71877;-36
2022/11/30 05:17:37;;;;;;;;;7.50;6.00;;;;;8.92;59.58;101673.41;5029101;28;50128;-36
2022/11/30 05:20:03;;;;;;;;;6.00;4.75;;;;;8.82;59.77;101670.81;5025390;28;45393;-36
2022/11/30 05:22:28;;;;;;;;;9.25;6.25;;;;;8.76;59.85;101665.63;5032903;28;45380;-36
2022/11/30 05:24:53;;;;;;;;;10.25;7.75;;;;;8.76;60.20;101669.09;5022929;28;54834;-36
2022/11/30 05:27:19;;;;;;;;;9.50;5.75;;;;;8.76;60.17;101668.25;5025551;28;67069;-36
2022/11/30 05:29:44;;;;;;;;;9.25;8.00;;;;;8.79;60.19;101670.84;5025634;28;66134;-37
2022/11/30 05:32:09;;;;;;;;;9.75;7.75;;;;;8.82;60.23;101674.31;5031006;28;64312;-36
2022/11/30 05:34:34;;;;;;;;;10.50;6.00;;;;;8.87;60.11;101669.06;5019415;28;67416;-36
2022/11/30 05:37:00;;;;;;;;;7.75;5.25;;;;;8.88;60.17;101662.97;5026405;28;65097;-36
2022/11/30 05:39:25;;;;;;;;;5.75;5.00;;;;;8.92;60.12;101667.28;5024517;27;45198;-36
2022/11/30 05:41:50;;;;;;;;;5.75;5.00;;;;;8.96;60.17;101665.53;5024816;28;45340;-36
2022/11/30 05:44:16;;;;;;;;;5.25;5.25;;;;;8.98;60.27;101661.16;5019864;28;69940;-36
2022/11/30 05:46:41;;;;;;;;;9.00;6.00;;;;;8.98;60.14;101656.84;5027969;28;62025;-36
2022/11/30 05:49:06;;;;;;;;;11.00;5.50;;;;;8.99;60.34;101658.53;5023907;28;56998;-40
2022/11/30 05:51:32;;;;;;;;;6.25;4.50;;;;;9.01;60.03;101653.31;5031620;28;46168;-36
2022/11/30 05:53:57;;;;;;;;;7.00;7.00;;;;;9.04;60.06;101655.91;5028242;28;70807;-36
2022/11/30 05:56:23;;;;;;;;;8.25;5.75;;;;;9.04;60.11;101654.16;5044958;28;45393;-36
2022/11/30 05:58:48;;;;;;;;;8.50;5.00;;;;;9.03;60.01;101652.44;5045390;28;61110;-36
2022/11/30 06:01:22;;;;;;;;;6.50;6.00;;;;;9.05;59.98;101660.28;5028832;27;68546;-36
2022/11/30 06:03:48;;;;;;;;;3.50;3.50;;;;;9.05;60.25;101661.13;5030883;28;45349;-36
2022/11/30 06:06:13;;;;;;;;;9.25;7.00;;;;;9.05;60.32;101660.28;5022166;28;45627;-36
2022/11/30 06:08:38;;;;;;;;;13.25;10.25;;;;;9.01;60.25;101666.38;5026789;28;45444;-36
2022/11/30 06:11:04;;;;;;;;;15.25;10.75;;;;;8.98;60.18;101663.78;5024274;28;45494;-36
2022/11/30 06:13:31;;;;;;;;;13.25;8.50;;;;;8.96;60.44;101663.81;5030994;28;45448;-36
2022/11/30 06:16:01;;;;;;;;;9.75;6.00;;;;;8.95;60.45;101661.19;5025787;28;48276;-36
2022/11/30 06:18:26;;;;;;;;;10.25;7.50;;;;;8.97;60.40;101662.91;5027384;28;45440;-36
2022/11/30 06:20:52;;;;;;;;;7.00;7.00;;;;;8.95;60.32;101658.59;5025833;28;45469;-36
2022/11/30 06:23:17;;;;;;;;;10.50;5.00;;;;;8.93;60.40;101654.22;5031488;28;54775;-36
2022/11/30 06:25:43;;;;;;;;;12.25;8.75;;;;;8.97;60.39;101656.84;5043658;28;46317;-36
2022/11/30 06:28:09;;;;;;;;;16.75;8.50;;;;;8.98;60.46;101646.38;5030167;28;45357;-36
2022/11/30 06:30:34;;;;;;;;;12.00;8.50;;;;;9.00;60.38;101654.22;5026537;28;45419;-36
2022/11/30 06:32:59;;;;;;;;;11.00;8.25;;;;;9.01;60.40;101656.81;5026825;28;60479;-36
2022/11/30 06:35:25;;;;;;;;;12.75;10.00;;;;;9.02;60.51;101657.69;5026804;28;46066;-36
2022/11/30 06:37:50;;;;;;;;;11.00;7.75;;;;;9.06;60.21;101659.38;5023564;28;60199;-36
2022/11/30 06:40:16;;;;;;;;;10.75;8.25;;;;;9.06;60.46;101662.00;5025396;28;45579;-36
2022/11/30 06:42:41;;;;;;;;;10.00;8.00;;;;;9.04;60.46;101664.63;5031668;28;45492;-36
2022/11/30 06:45:07;;;;;;;;;8.50;7.00;;;;;9.04;60.38;101664.63;5021325;28;45446;-36
2022/11/30 06:47:33;;;;;;;;;9.00;7.75;;;;;9.03;60.50;101660.28;5023489;28;45871;-36
2022/11/30 06:49:58;;;;;;;;;12.25;7.00;;;;;8.97;60.37;101657.69;5028947;28;45503;-36
2022/11/30 06:52:24;;;;;;;;;13.00;7.75;;;;;9.03;60.34;101670.72;5027813;27;45216;-36
2022/11/30 06:54:49;;;;;;;;;12.50;9.25;;;;;9.03;60.42;101675.06;5030225;28;46237;-36
2022/11/30 06:57:15;;;;;;;;;11.00;9.75;;;;;9.05;60.36;101675.94;5034103;28;45488;-36
2022/11/30 06:59:41;;;;;;;;;13.75;10.00;;;;;9.04;60.30;101674.19;5025884;28;49125;-36
2022/11/30 07:02:13;;;;;;;;;12.50;11.50;;;;;9.03;60.46;101678.56;5032744;28;45461;-36
2022/11/30 07:04:39;;;;;;;;;13.50;10.75;;;;;9.03;60.38;101677.66;5029296;28;45428;-36
2022/11/30 07:07:06;;;;;;;;;16.75;11.75;;;;;9.04;60.52;101684.66;5024448;27;73146;-36
2022/11/30 07:09:32;;;;;;;;;13.25;10.75;;;;;9.05;60.35;101682.03;5027380;28;45278;-36
2022/11/30 07:11:57;;;;;;;;;12.25;10.00;;;;;9.05;60.28;101686.38;5045034;28;45348;-36
2022/11/30 07:14:24;;;;;;;;;13.00;8.50;;;;;9.06;60.75;101690.72;5027467;28;46160;-36
2022/11/30 07:16:49;;;;;;;;;11.75;10.50;;;;;9.04;60.67;101697.69;5028530;27;45490;-36
2022/11/30 07:19:14;;;;;;;;;9.75;9.25;;;;;9.03;60.41;101696.84;5029247;28;64937;-36
2022/11/30 07:21:40;;;;;;;;;14.00;11.00;;;;;9.05;60.57;101686.38;5025891;28;64825;-36
2022/11/30 07:26:49;;;;;;;;;21.50;10.50;;;;;9.07;60.42;101698.56;5019567;28;45834;-36
2022/11/30 07:29:15;;;;;;;;;18.75;12.25;;;;;9.06;60.29;101702.03;5026211;28;45498;-36
2022/11/30 07:31:40;;;;;;;;;16.00;12.75;;;;;9.05;60.31;101702.91;5034517;28;72249;-36
2022/11/30 07:34:08;;;;;;;;;13.75;12.00;;;;;9.07;60.40;101697.69;5034007;28;45914;-36
2022/11/30 07:36:34;;;;;;;;;19.75;13.75;;;;;9.07;60.33;101701.16;5026317;28;46017;-36
2022/11/30 07:38:59;;;;;;;;;19.00;13.25;;;;;9.10;60.31;101709.00;5042684;28;46210;-36
2022/11/30 07:41:24;;;;;;;;;17.25;10.75;;;;;9.10;60.40;101708.09;5026963;28;45356;-37
2022/11/30 07:43:50;;;;;;;;;15.50;12.25;;;;;9.12;60.34;101711.59;5013998;27;47876;-37
2022/11/30 07:46:16;;;;;;;;;16.00;13.00;;;;;9.15;60.39;101718.53;5027675;28;45873;-36
2022/11/30 07:48:42;;;;;;;;;18.50;11.25;;;;;9.15;60.44;101716.78;5028786;28;45385;-36
2022/11/30 07:51:26;;;;;;;;;20.00;12.50;;;;;9.13;60.41;101716.78;5025044;27;45346;-36
2022/11/30 07:53:51;;;;;;;;;14.00;12.00;;;;;9.09;60.41;101722.03;5040322;28;45387;-36
2022/11/30 07:56:18;;;;;;;;;17.75;14.25;;;;;9.10;60.42;101726.38;5032244;28;49859;-37
2022/11/30 07:58:44;;;;;;;;;21.00;17.25;;;;;9.10;60.63;101727.25;5033643;27;45445;-37
2022/11/30 08:01:18;;;;;;;;;19.25;13.00;;;;;9.10;60.59;101722.03;5023841;28;45388;-37
2022/11/30 08:03:44;;;;;;;;;23.00;17.50;;;;;9.08;60.46;101718.56;5030894;27;45656;-37
2022/11/30 08:06:11;;;;;;;;;18.00;14.00;;;;;9.09;60.51;101722.03;5023510;28;45385;-35
2022/11/30 08:08:40;;;;;;;;;22.50;18.50;;;;;9.13;60.47;101726.38;5025755;28;45329;-35
2022/11/30 08:11:07;;;;;;;;;13.00;10.50;;;;;9.16;60.53;101726.34;5031352;28;45368;-36
2022/11/30 08:13:32;;;;;;;;;20.50;14.00;;;;;9.17;60.41;101733.34;5024155;28;46891;-36
2022/11/30 08:16:06;;;;;;;;;17.25;12.00;;;;;9.19;60.43;101728.06;5027078;28;45519;-36
2022/11/30 08:18:32;;;;;;;;;20.00;15.00;;;;;9.20;60.40;101730.69;5030835;28;45364;-37
2022/11/30 08:20:58;;;;;;;;;14.00;13.50;;;;;9.23;60.48;101732.44;5052070;27;45336;-36
2022/11/30 08:23:24;;;;;;;;;14.00;12.50;;;;;9.22;60.14;101734.16;5026115;28;46395;-36
2022/11/30 08:25:50;;;;;;;;;21.00;15.00;;;;;9.26;60.28;101735.88;5032824;28;45919;-37
2022/11/30 08:28:15;;;;;;;;;22.75;15.25;;;;;9.28;60.18;101743.72;5034995;28;58214;-38
2022/11/30 08:30:40;;;;;;;;;19.75;11.00;;;;;9.28;60.20;101739.34;5028466;28;45425;-37
2022/11/30 08:33:06;;;;;;;;;23.25;15.75;;;;;9.32;60.33;101743.69;5027796;28;63799;-37
2022/11/30 08:35:31;;;;;;;;;19.00;12.25;;;;;9.35;60.13;101740.19;5034304;28;49161;-37
2022/11/30 08:37:56;;;;;;;;;19.50;14.00;;;;;9.38;60.22;101737.53;5020109;28;45545;-37
2022/11/30 08:40:22;;;;;;;;;17.25;12.50;;;;;9.41;60.03;101740.16;5033876;27;45509;-37
2022/11/30 08:42:47;;;;;;;;;18.25;15.25;;;;;9.43;60.06;101743.59;5018302;27;71931;-36
2022/11/30 08:45:12;;;;;;;;;21.75;15.75;;;;;9.45;59.86;101746.22;5031003;28;65560;-37
2022/11/30 08:47:38;;;;;;;;;23.50;17.50;;;;;9.46;60.09;101742.75;5022579;27;45343;-37
2022/11/30 08:50:03;;;;;;;;;19.50;14.50;;;;;9.48;59.84;101747.06;5028172;28;65401;-37
2022/11/30 08:52:29;;;;;;;;;19.25;16.25;;;;;9.50;60.04;101741.84;5036730;28;45685;-37
2022/11/30 08:54:54;;;;;;;;;20.00;16.00;;;;;9.52;59.92;101747.06;5028168;28;45522;-37
2022/11/30 08:57:20;;;;;;;;;29.00;23.00;;;;;9.55;59.94;101744.44;5032612;28;45255;-37
2022/11/30 08:59:46;;;;;;;;;28.00;21.00;;;;;9.56;59.87;101749.66;5024091;28;59996;-37
2022/11/30 09:02:17;;;;;;;;;25.75;19.50;;;;;9.58;59.95;101750.50;5022676;28;46221;-37
2022/11/30 09:04:42;;;;;;;;;25.25;16.75;;;;;9.62;59.98;101756.56;5032083;28;45575;-37
2022/11/30 09:07:08;;;;;;;;;18.00;16.75;;;;;9.66;59.89;101753.06;5032958;28;45467;-37
2022/11/30 09:09:34;;;;;;;;;23.00;17.50;;;;;9.72;59.77;101757.38;5036069;28;45526;-37
2022/11/30 09:11:59;;;;;;;;;23.25;14.50;;;;;9.75;59.48;101752.13;5031683;27;46169;-37
2022/11/30 09:14:25;;;;;;;;;18.25;16.75;;;;;9.76;59.65;101759.97;5032610;28;47416;-37
2022/11/30 09:16:52;;;;;;;;;20.75;17.25;;;;;9.78;59.37;101765.19;5026897;28;61977;-37
2022/11/30 09:19:17;;;;;;;;;17.25;14.25;;;;;9.81;59.35;101770.38;5034392;28;45615;-37
2022/11/30 09:21:43;;;;;;;;;20.75;16.00;;;;;9.84;59.18;101766.00;5030979;28;45224;-37
2022/11/30 09:24:09;;;;;;;;;18.25;14.75;;;;;9.88;59.18;101759.00;5036824;28;55036;-37
2022/11/30 09:26:34;;;;;;;;;22.25;15.50;;;;;9.90;59.32;101765.09;5033326;28;45536;-37
2022/11/30 09:28:59;;;;;;;;;17.25;15.50;;;;;9.94;59.06;101773.78;5027285;28;45432;-37
2022/11/30 09:31:25;;;;;;;;;19.25;16.25;;;;;9.96;59.02;101769.41;5032154;28;59041;-37
2022/11/30 09:33:51;;;;;;;;;26.00;18.00;;;;;9.99;59.10;101772.84;5028709;27;45513;-38
2022/11/30 09:36:19;;;;;;;;;27.50;21.00;;;;;10.01;59.00;101768.47;5038040;28;45356;-37
2022/11/30 09:38:45;;;;;;;;;22.00;17.50;;;;;10.02;58.86;101777.19;5025458;28;45440;-37
2022/11/30 09:41:55;;;;;;;;;36.00;24.00;;;;;10.03;58.89;101776.31;5034084;28;45376;-37
2022/11/30 09:44:28;;;;;;;;;17.00;14.50;;;;;10.02;58.75;101770.22;4989169;27;45903;-37
2022/11/30 09:47:18;;;;;;;;;25.00;19.50;;;;;10.03;58.77;101771.94;5063176;27;45352;-37
2022/11/30 09:49:44;;;;;;;;;19.75;14.50;;;;;10.03;58.97;101766.72;5021801;27;45540;-37
2022/11/30 09:52:18;;;;;;;;;25.75;17.75;;;;;10.04;58.75;101771.09;5026563;27;46408;-37
2022/11/30 09:54:44;;;;;;;;;24.00;19.00;;;;;10.02;58.98;101764.09;5043357;28;45571;-37
2022/11/30 09:57:15;;;;;;;;;22.50;17.50;;;;;10.04;59.04;101772.84;5035278;28;45220;-37
2022/11/30 09:59:47;;;;;;;;;26.50;19.00;;;;;10.05;59.11;101771.94;5034797;28;45345;-44
2022/11/30 10:02:16;;;;;;;;;22.00;17.75;;;;;10.05;58.73;101770.19;5036420;28;45387;-38
2022/11/30 10:04:42;;;;;;;;;24.00;16.75;;;;;10.06;58.83;101773.69;5032303;28;46230;-37
2022/11/30 10:07:34;;;;;;;;;27.25;22.50;;;;;10.05;58.78;101771.94;5043251;28;51598;-37
2022/11/30 10:10:19;;;;;;;;;30.00;23.75;;;;;10.04;58.37;101771.09;5034883;28;45302;-37
2022/11/30 10:12:50;;;;;;;;;26.25;21.75;;;;;9.98;58.38;101768.50;5037164;27;45559;-37
2022/11/30 10:15:28;;;;;;;;;18.00;12.00;;;;;9.98;58.32;101772.88;5037084;28;45780;-37
2022/11/30 10:17:55;;;;;;;;;32.75;21.00;;;;;9.96;58.16;101766.78;5041817;28;45747;-37
2022/11/30 10:20:50;;;;;;;;;27.00;20.50;;;;;9.96;58.41;101762.41;5042742;28;45466;-37
2022/11/30 10:23:25;;;;;;;;;21.25;19.00;;;;;9.90;58.23;101772.94;5020301;28;45435;-37
2022/11/30 10:26:00;;;;;;;;;27.00;17.50;;;;;9.89;58.26;101768.56;5036516;28;45332;-37
2022/11/30 10:28:32;;;;;;;;;24.25;21.75;;;;;9.91;58.45;101773.78;5072595;27;45517;-37
2022/11/30 10:30:59;;;;;;;;;25.75;18.00;;;;;9.94;58.60;101763.31;5023346;28;45464;-37
2022/11/30 10:33:29;;;;;;;;;27.25;19.50;;;;;9.97;58.44;101761.56;5030538;27;46080;-37
2022/11/30 10:35:59;;;;;;;;;24.75;19.25;;;;;10.02;58.48;101766.72;5028887;28;45357;-37
2022/11/30 10:38:30;;;;;;;;;24.50;16.75;;;;;10.03;58.46;101761.47;5020144;28;45507;-37
2022/11/30 10:41:11;;;;;;;;;23.50;17.50;;;;;10.06;58.37;101760.59;5017498;27;45586;-37
2022/11/30 10:43:44;;;;;;;;;28.00;19.25;;;;;10.05;58.34;101754.50;5022680;28;46462;-37
2022/11/30 10:46:18;;;;;;;;;24.25;20.00;;;;;10.06;58.42;101753.63;5031046;28;46017;-37
2022/11/30 10:48:51;;;;;;;;;28.00;19.00;;;;;10.08;58.44;101756.22;5026001;28;45803;-35
2022/11/30 10:51:16;;;;;;;;;23.25;18.75;;;;;10.10;58.67;101751.84;5041120;28;45307;-36
2022/11/30 10:53:42;;;;;;;;;29.50;21.50;;;;;10.13;58.29;101754.44;5031408;28;46180;-36
2022/11/30 10:56:09;;;;;;;;;27.00;19.50;;;;;10.14;58.38;101753.53;5043975;28;62201;-36
2022/11/30 10:58:37;;;;;;;;;23.00;19.50;;;;;10.18;58.18;101743.91;5032035;27;45377;-36
2022/11/30 11:01:27;;;;;;;;;26.50;17.25;;;;;10.20;58.53;101742.19;5026931;28;45386;-36
2022/11/30 11:04:11;;;;;;;;;20.75;16.75;;;;;10.25;58.22;101737.75;5026291;27;46620;-36
2022/11/30 11:06:42;;;;;;;;;26.50;18.50;;;;;10.27;58.20;101746.47;5036432;27;45831;-36
2022/11/30 11:09:29;;;;;;;;;21.75;18.75;;;;;10.30;57.90;101742.94;5052393;28;45402;-36
2022/11/30 11:12:05;;;;;;;;;26.50;19.25;;;;;10.29;57.80;101741.19;5035715;28;45224;-36
2022/11/30 11:14:31;;;;;;;;;21.25;17.50;;;;;10.26;58.03;101745.59;5034094;28;47899;-36
2022/11/30 11:17:02;;;;;;;;;22.25;17.00;;;;;10.29;57.86;101738.59;5052550;28;45262;-36
2022/11/30 11:19:41;;;;;;;;;29.25;19.25;;;;;10.33;58.08;101741.19;5036852;28;45435;-36
2022/11/30 11:22:27;;;;;;;;;19.25;16.50;;;;;10.38;57.84;101731.56;5044803;27;45433;-36
2022/11/30 11:24:55;;;;;;;;;23.75;20.00;;;;;10.44;57.86;101736.72;5053277;27;45886;-36